Time;durP1;ratioP1;P1;durP2;ratioP2;P2;SDS_P1;SDS_P2;PMS_P1;PMS_P2;Temp;Humidity;BMP_temperature;BMP_pressure;BME280_temperature;BME280_humidity;BME280_pressure;Samples;Min_cycle;Max_cycle;Signal;HPM_P1;HPM_P2
2021/08/08 00:01:21;;;;;;;1.88;0.93;;;16.40;99.90;;;;;;4978090;28;20030;-78
2021/08/08 00:03:47;;;;;;;3.60;0.80;;;16.40;99.90;;;;;;4976649;28;20041;-78
2021/08/08 00:06:14;;;;;;;1.50;0.65;;;16.40;99.90;;;;;;4978650;28;20031;-78
2021/08/08 00:08:40;;;;;;;1.05;0.60;;;16.30;99.90;;;;;;4981427;28;20035;-77
2021/08/08 00:11:07;;;;;;;2.35;0.77;;;16.40;99.90;;;;;;4964330;28;20042;-78
2021/08/08 00:13:34;;;;;;;2.35;0.82;;;16.40;99.90;;;;;;4974542;28;20039;-78
2021/08/08 00:16:01;;;;;;;2.97;1.08;;;16.40;99.90;;;;;;4978173;28;20042;-79
2021/08/08 00:18:28;;;;;;;4.57;0.95;;;16.30;99.90;;;;;;4981992;28;20058;-78
2021/08/08 00:20:54;;;;;;;2.88;0.60;;;16.40;99.90;;;;;;4969586;28;20031;-79
2021/08/08 00:23:20;;;;;;;1.25;0.60;;;16.30;99.90;;;;;;4979863;28;20042;-78
2021/08/08 00:25:48;;;;;;;2.10;0.57;;;16.30;99.90;;;;;;4981429;28;20031;-77
2021/08/08 00:28:14;;;;;;;8.68;0.55;;;16.30;99.90;;;;;;4980665;28;20039;-79
2021/08/08 00:30:40;;;;;;;0.80;0.50;;;16.30;99.90;;;;;;4968334;28;20019;-78
2021/08/08 00:33:06;;;;;;;2.92;1.00;;;16.30;99.90;;;;;;4973402;28;20388;-78
2021/08/08 00:35:42;;;;;;;1.58;0.55;;;16.30;99.90;;;;;;4976175;28;20034;-78
2021/08/08 00:38:10;;;;;;;3.42;0.73;;;16.30;99.90;;;;;;4969098;28;20039;-77
2021/08/08 00:40:39;;;;;;;3.17;0.70;;;16.30;99.90;;;;;;4986340;28;20046;-79
2021/08/08 00:43:09;;;;;;;3.50;0.68;;;16.30;99.90;;;;;;4974361;28;20046;-75
2021/08/08 00:45:38;;;;;;;0.85;0.40;;;16.30;99.90;;;;;;4990270;28;20054;-77
2021/08/08 00:48:09;;;;;;;2.15;0.65;;;16.20;99.90;;;;;;4974416;28;20464;-77
2021/08/08 00:50:39;;;;;;;3.08;0.82;;;16.10;99.90;;;;;;4971221;28;20047;-77
2021/08/08 00:53:08;;;;;;;2.65;0.65;;;16.00;99.90;;;;;;4972146;28;20462;-78
2021/08/08 00:55:37;;;;;;;1.85;0.60;;;16.10;99.90;;;;;;4962894;28;20042;-78
2021/08/08 00:58:03;;;;;;;1.25;0.50;;;16.00;99.90;;;;;;4969893;28;20059;-78
2021/08/08 01:00:33;;;;;;;2.05;0.63;;;15.90;99.90;;;;;;4955925;28;20043;-79
2021/08/08 01:03:04;;;;;;;3.33;0.80;;;15.90;99.90;;;;;;4973536;28;20051;-78
2021/08/08 01:05:42;;;;;;;4.60;1.50;;;15.90;99.90;;;;;;4973611;28;20389;-78
2021/08/08 01:08:15;;;;;;;2.92;0.98;;;15.90;99.90;;;;;;4971218;28;20488;-77
2021/08/08 01:10:43;;;;;;;1.85;0.75;;;15.90;99.90;;;;;;4962451;28;20038;-78
2021/08/08 01:13:10;;;;;;;3.53;0.73;;;15.80;99.90;;;;;;4962015;28;20046;-77
2021/08/08 01:15:39;;;;;;;2.85;0.82;;;15.80;99.90;;;;;;4975984;28;20039;-78
2021/08/08 01:18:07;;;;;;;2.13;1.08;;;15.80;99.90;;;;;;4973505;28;20031;-78
2021/08/08 01:20:35;;;;;;;1.20;0.52;;;15.90;99.90;;;;;;4973919;28;20078;-77
2021/08/08 01:23:08;;;;;;;3.08;0.70;;;15.90;99.90;;;;;;4995324;28;20039;-77
2021/08/08 01:25:38;;;;;;;1.55;0.63;;;15.90;99.90;;;;;;4981750;28;20039;-77
2021/08/08 01:28:05;;;;;;;1.15;0.50;;;16.00;99.90;;;;;;4974342;28;20039;-77
2021/08/08 01:30:36;;;;;;;;;;;16.00;99.90;;;;;;4971308;28;20035;-77
2021/08/08 01:33:08;;;;;;;3.38;0.88;;;16.10;99.90;;;;;;4974005;28;19906;-77
2021/08/08 01:35:43;;;;;;;1.77;0.90;;;16.10;99.90;;;;;;4974853;28;20030;-77
2021/08/08 01:38:10;;;;;;;1.85;0.43;;;16.10;99.90;;;;;;4970847;28;20058;-77
2021/08/08 01:40:43;;;;;;;2.25;0.50;;;16.10;99.90;;;;;;4971455;28;20476;-78
2021/08/08 01:43:14;;;;;;;2.55;0.85;;;16.10;99.90;;;;;;4959352;28;20381;-76
2021/08/08 01:45:43;;;;;;;3.80;0.80;;;16.00;99.90;;;;;;4974319;28;20046;-77
2021/08/08 01:48:12;;;;;;;2.60;0.50;;;15.90;99.90;;;;;;4973290;28;20035;-75
2021/08/08 01:50:39;;;;;;;2.67;0.80;;;15.80;99.90;;;;;;4961118;28;20047;-77
2021/08/08 01:53:10;;;;;;;2.13;0.75;;;15.70;99.90;;;;;;4955054;28;20050;-77
2021/08/08 01:55:37;;;;;;;2.30;1.25;;;15.60;99.90;;;;;;4954913;28;20043;-78
2021/08/08 01:58:06;;;;;;;7.13;1.17;;;15.60;99.90;;;;;;4959544;28;20042;-77
2021/08/08 02:00:33;;;;;;;4.35;0.88;;;15.50;99.90;;;;;;4971480;28;20042;-77
2021/08/08 02:03:09;;;;;;;2.63;0.50;;;15.40;99.90;;;;;;4967054;28;20038;-78
2021/08/08 02:05:47;;;;;;;3.13;0.80;;;15.40;99.90;;;;;;4984324;28;20043;-77
2021/08/08 02:08:17;;;;;;;2.05;0.57;;;15.30;99.90;;;;;;4985512;28;20045;-78
2021/08/08 02:11:01;;;;;;;2.83;0.50;;;15.30;99.90;;;;;;4983432;28;20041;-77
2021/08/08 02:13:36;;;;;;;3.28;0.85;;;15.20;99.90;;;;;;4957379;28;20046;-77
2021/08/08 02:16:03;;;;;;;2.67;0.65;;;15.20;99.90;;;;;;4973190;28;20039;-79
2021/08/08 02:18:30;;;;;;;2.30;0.77;;;15.10;99.90;;;;;;4972424;28;20039;-78
2021/08/08 02:20:56;;;;;;;2.10;1.00;;;15.00;99.90;;;;;;4971948;28;20046;-77
2021/08/08 02:23:23;;;;;;;1.48;0.47;;;15.00;99.90;;;;;;4954094;28;20112;-78
2021/08/08 02:25:52;;;;;;;2.97;0.80;;;14.90;99.90;;;;;;4978544;28;20039;-77
2021/08/08 02:28:26;;;;;;;1.92;0.60;;;15.00;99.90;;;;;;4978702;28;20039;-76
2021/08/08 02:30:53;;;;;;;2.35;0.90;;;15.00;99.90;;;;;;4998021;28;20047;-78
2021/08/08 02:33:24;;;;;;;3.08;0.68;;;14.90;99.90;;;;;;4955723;28;20070;-78
2021/08/08 02:35:50;;;;;;;2.30;0.68;;;14.90;99.90;;;;;;4965337;28;20043;-78
2021/08/08 02:38:18;;;;;;;2.00;1.13;;;14.90;99.90;;;;;;4972721;28;20111;-78
2021/08/08 02:40:46;;;;;;;3.72;0.82;;;14.90;99.90;;;;;;4973187;28;20042;-78
2021/08/08 02:43:14;;;;;;;2.35;1.27;;;14.80;99.90;;;;;;4969452;28;20050;-78
2021/08/08 02:45:41;;;;;;;3.30;1.38;;;14.80;99.90;;;;;;4954126;28;20062;-78
2021/08/08 02:48:11;;;;;;;3.85;0.95;;;14.70;99.90;;;;;;4953902;28;20457;-78
2021/08/08 02:50:37;;;;;;;2.25;0.75;;;14.70;99.90;;;;;;4954356;28;20035;-77
2021/08/08 02:53:05;;;;;;;2.05;0.85;;;14.70;99.90;;;;;;4969738;28;20039;-79
2021/08/08 02:55:31;;;;;;;2.50;0.70;;;14.70;99.90;;;;;;4968720;28;20456;-78
2021/08/08 02:58:01;;;;;;;5.90;0.77;;;14.70;99.90;;;;;;4956213;28;20039;-77
2021/08/08 03:00:31;;;;;;;2.00;0.70;;;14.60;99.90;;;;;;4971001;28;20488;-77
2021/08/08 03:02:58;;;;;;;4.57;1.15;;;14.60;99.90;;;;;;4983137;28;20050;-78
2021/08/08 03:05:24;;;;;;;1.77;0.50;;;14.70;99.90;;;;;;4963267;28;20042;-78
2021/08/08 03:07:51;;;;;;;3.67;0.63;;;14.70;99.90;;;;;;4972281;28;20042;-78
2021/08/08 03:10:19;;;;;;;3.53;0.80;;;14.70;99.90;;;;;;4971916;28;20054;-78
2021/08/08 03:12:46;;;;;;;3.05;0.80;;;14.60;99.90;;;;;;4955080;28;20485;-78
2021/08/08 03:15:12;;;;;;;3.15;0.77;;;14.60;99.90;;;;;;4958005;28;20045;-77
2021/08/08 03:17:40;;;;;;;2.28;0.70;;;14.60;99.90;;;;;;4969789;28;20536;-78
2021/08/08 03:20:07;;;;;;;3.50;0.77;;;14.60;99.90;;;;;;4962710;28;20517;-78
2021/08/08 03:22:33;;;;;;;2.72;0.77;;;14.60;99.90;;;;;;4972597;28;20050;-78
2021/08/08 03:24:59;;;;;;;3.25;1.08;;;14.60;99.90;;;;;;4972215;28;20050;-78
2021/08/08 03:27:25;;;;;;;2.63;0.70;;;14.60;99.90;;;;;;4971986;28;20046;-78
2021/08/08 03:29:52;;;;;;;2.80;0.93;;;14.70;99.90;;;;;;4972258;28;20047;-78
2021/08/08 03:32:18;;;;;;;1.42;0.80;;;14.70;99.90;;;;;;4971661;28;20038;-78
2021/08/08 03:34:45;;;;;;;3.20;0.68;;;14.70;99.90;;;;;;4971952;28;20437;-78
2021/08/08 03:37:11;;;;;;;1.60;0.70;;;14.60;99.90;;;;;;4955852;28;20062;-77
2021/08/08 03:39:40;;;;;;;5.85;1.00;;;14.60;99.90;;;;;;4971992;28;20047;-77
2021/08/08 03:42:06;;;;;;;3.05;0.80;;;14.60;99.90;;;;;;4974459;28;20046;-78
2021/08/08 03:44:32;;;;;;;2.58;0.60;;;14.50;99.90;;;;;;4976779;28;20038;-77
2021/08/08 03:46:59;;;;;;;4.18;0.80;;;14.50;99.90;;;;;;4975160;28;20049;-78
2021/08/08 03:49:25;;;;;;;4.32;1.00;;;14.40;99.90;;;;;;4975483;28;20050;-78
2021/08/08 03:51:52;;;;;;;2.05;0.80;;;14.40;99.90;;;;;;4976514;28;20039;-79
2021/08/08 03:54:18;;;;;;;3.90;0.80;;;14.40;99.90;;;;;;4980786;28;20053;-79
2021/08/08 03:56:46;;;;;;;3.00;0.70;;;14.40;99.90;;;;;;4969198;28;20487;-78
2021/08/08 03:59:13;;;;;;;2.78;1.10;;;14.30;99.90;;;;;;4957745;28;20039;-78
2021/08/08 04:01:40;;;;;;;2.10;0.90;;;14.30;99.90;;;;;;4974795;28;20046;-76
2021/08/08 04:04:07;;;;;;;2.03;0.80;;;14.40;99.90;;;;;;4963901;28;20043;-77
2021/08/08 04:06:33;;;;;;;5.47;1.17;;;14.30;99.90;;;;;;4975724;28;20046;-78
2021/08/08 04:08:59;;;;;;;3.08;0.98;;;14.30;99.90;;;;;;4972379;28;20473;-79
2021/08/08 04:11:25;;;;;;;1.52;0.90;;;14.40;99.90;;;;;;4970548;28;20467;-78
2021/08/08 04:13:52;;;;;;;1.30;0.90;;;14.50;99.90;;;;;;4975561;28;20039;-77
2021/08/08 04:16:18;;;;;;;2.15;0.60;;;14.50;99.90;;;;;;4959630;28;20046;-77
2021/08/08 04:18:45;;;;;;;2.00;0.88;;;14.50;99.90;;;;;;4966799;28;20039;-78
2021/08/08 04:21:12;;;;;;;2.85;1.13;;;14.50;99.90;;;;;;4956425;28;20039;-79
2021/08/08 04:23:41;;;;;;;1.38;0.77;;;14.50;99.90;;;;;;4970050;28;20060;-79
2021/08/08 04:26:07;;;;;;;3.63;1.13;;;14.50;99.90;;;;;;4956401;28;20050;-78
2021/08/08 04:28:39;;;;;;;2.25;0.82;;;14.60;99.90;;;;;;4974341;28;20047;-79
2021/08/08 04:31:09;;;;;;;2.95;0.95;;;14.60;99.90;;;;;;4966164;28;20042;-78
2021/08/08 04:33:38;;;;;;;2.05;1.00;;;14.70;99.90;;;;;;4968564;28;20050;-76
2021/08/08 04:36:05;;;;;;;4.13;1.00;;;14.70;99.90;;;;;;4976076;28;20046;-76
2021/08/08 04:38:32;;;;;;;1.15;0.70;;;14.70;99.90;;;;;;4973980;28;20038;-76
2021/08/08 04:40:59;;;;;;;3.88;1.02;;;14.70;99.90;;;;;;4974050;28;20464;-76
2021/08/08 04:43:25;;;;;;;2.53;1.00;;;14.80;99.90;;;;;;4965972;28;20035;-77
2021/08/08 04:45:51;;;;;;;1.80;1.08;;;14.80;99.90;;;;;;4961782;28;20042;-76
2021/08/08 04:48:18;;;;;;;5.13;1.33;;;14.80;99.90;;;;;;4974665;28;20111;-77
2021/08/08 04:50:44;;;;;;;2.35;0.93;;;14.90;99.90;;;;;;4975419;28;20022;-78
2021/08/08 04:53:17;;;;;;;1.55;0.63;;;15.00;99.90;;;;;;4961357;28;20461;-78
2021/08/08 04:55:45;;;;;;;2.13;0.77;;;15.50;99.90;;;;;;4966025;28;20061;-78
2021/08/08 04:58:11;;;;;;;2.85;0.70;;;16.50;99.90;;;;;;4974819;28;20035;-78
2021/08/08 05:00:38;;;;;;;3.72;0.98;;;17.10;99.90;;;;;;4975242;28;20046;-78
2021/08/08 05:03:05;;;;;;;4.07;0.52;;;17.80;99.90;;;;;;4973947;28;20384;-78
2021/08/08 05:05:33;;;;;;;1.65;0.50;;;18.60;99.90;;;;;;4974055;28;20039;-75
2021/08/08 05:08:00;;;;;;;3.10;0.60;;;19.40;97.40;;;;;;4988146;28;20054;-77
2021/08/08 05:10:28;;;;;;;1.88;0.55;;;19.50;95.40;;;;;;4973724;28;20038;-77
2021/08/08 05:12:56;;;;;;;2.55;0.98;;;19.40;95.40;;;;;;4973504;28;20492;-77
2021/08/08 05:15:24;;;;;;;2.80;0.70;;;20.00;94.20;;;;;;4984533;28;20035;-77
2021/08/08 05:17:50;;;;;;;1.58;0.60;;;20.60;91.80;;;;;;4956848;28;20050;-77
2021/08/08 05:20:17;;;;;;;2.78;0.80;;;20.10;91.30;;;;;;4974217;28;20107;-78
2021/08/08 05:22:44;;;;;;;4.05;0.82;;;19.20;92.20;;;;;;4980404;28;20039;-78
2021/08/08 05:25:11;;;;;;;3.58;1.05;;;18.40;93.80;;;;;;4962966;28;20043;-76
2021/08/08 05:27:38;;;;;;;2.10;1.05;;;17.90;95.30;;;;;;4974644;28;20103;-77
2021/08/08 05:30:10;;;;;;;5.10;0.70;;;19.00;93.50;;;;;;4972528;28;20031;-77
2021/08/08 05:32:37;;;;;;;6.85;0.70;;;19.90;91.80;;;;;;4973643;28;20030;-77
2021/08/08 05:35:06;;;;;;;2.97;0.80;;;21.10;88.40;;;;;;4973448;28;20043;-77
2021/08/08 05:37:32;;;;;;;2.67;1.00;;;21.80;84.20;;;;;;4972864;28;20045;-79
2021/08/08 05:40:04;;;;;;;2.33;0.60;;;22.00;82.50;;;;;;4973762;28;20039;-78
2021/08/08 05:42:33;;;;;;;2.92;0.80;;;22.30;79.70;;;;;;4974044;28;20392;-77
2021/08/08 05:45:00;;;;;;;3.58;0.85;;;22.40;77.80;;;;;;4972319;28;20383;-77
2021/08/08 05:47:27;;;;;;;2.72;0.73;;;22.20;78.70;;;;;;4973807;28;20323;-78
2021/08/08 05:49:53;;;;;;;2.45;0.80;;;22.30;77.00;;;;;;4958669;28;20468;-77
2021/08/08 05:52:19;;;;;;;3.17;1.08;;;22.90;75.00;;;;;;4970804;28;20049;-77
2021/08/08 05:54:46;;;;;;;3.55;0.80;;;22.00;75.90;;;;;;4987695;28;20030;-77
2021/08/08 05:57:12;;;;;;;2.97;0.57;;;22.30;76.90;;;;;;4984897;28;20039;-77
2021/08/08 05:59:39;;;;;;;4.35;0.77;;;23.10;73.70;;;;;;4955464;28;20047;-77
2021/08/08 06:02:06;;;;;;;4.30;0.80;;;23.10;74.20;;;;;;4955296;28;20051;-77
2021/08/08 06:04:32;;;;;;;2.63;0.93;;;23.00;71.30;;;;;;4983905;28;20050;-78
2021/08/08 06:06:59;;;;;;;2.00;0.80;;;23.60;70.70;;;;;;4970137;28;20043;-79
2021/08/08 06:09:26;;;;;;;3.67;1.08;;;23.60;70.10;;;;;;4970101;28;20054;-79
2021/08/08 06:11:52;;;;;;;3.38;0.73;;;23.70;69.10;;;;;;4970399;28;20039;-76
2021/08/08 06:14:19;;;;;;;2.95;1.17;;;23.80;69.40;;;;;;4974151;28;20476;-77
2021/08/08 06:16:45;;;;;;;4.20;0.98;;;24.10;67.90;;;;;;4973215;28;20034;-77
2021/08/08 06:19:12;;;;;;;3.30;0.98;;;24.00;67.60;;;;;;4971852;28;20487;-76
2021/08/08 06:21:39;;;;;;;3.63;0.85;;;23.20;69.00;;;;;;4972381;28;20046;-77
2021/08/08 06:24:05;;;;;;;3.47;0.88;;;23.10;70.30;;;;;;4970411;28;20039;-77
2021/08/08 06:26:33;;;;;;;4.53;0.80;;;23.00;69.10;;;;;;4982424;28;20051;-78
2021/08/08 06:28:59;;;;;;;3.03;0.85;;;22.00;72.50;;;;;;4990293;28;20062;-76
2021/08/08 06:31:25;;;;;;;2.92;0.93;;;22.10;73.30;;;;;;4974767;28;20047;-77
2021/08/08 06:33:53;;;;;;;3.58;0.77;;;22.10;73.90;;;;;;4961459;28;20586;-78
2021/08/08 06:36:19;;;;;;;3.00;1.15;;;21.70;74.70;;;;;;4972632;28;20045;-79
2021/08/08 06:38:45;;;;;;;2.30;0.90;;;22.10;73.90;;;;;;4971970;28;20456;-77
2021/08/08 06:41:12;;;;;;;3.72;0.85;;;20.90;76.40;;;;;;4971294;28;20039;-76
2021/08/08 06:43:38;;;;;;;2.55;0.68;;;20.70;78.60;;;;;;4961966;28;20026;-78
2021/08/08 06:46:07;;;;;;;4.80;1.00;;;21.70;76.50;;;;;;4957188;28;20043;-77
2021/08/08 06:48:34;;;;;;;2.58;0.70;;;21.60;76.00;;;;;;4954143;28;20047;-77
2021/08/08 06:51:02;;;;;;;2.50;0.75;;;21.50;76.00;;;;;;4960666;28;20047;-76
2021/08/08 06:53:28;;;;;;;4.72;1.45;;;21.30;75.60;;;;;;4970988;28;20043;-76
2021/08/08 06:55:55;;;;;;;5.22;1.85;;;20.90;76.20;;;;;;4972146;28;20030;-76
2021/08/08 06:58:21;;;;;;;5.57;1.30;;;20.60;78.10;;;;;;4968554;28;20255;-75
2021/08/08 07:00:47;;;;;;;5.80;1.65;;;21.00;75.80;;;;;;4981928;28;20050;-76
2021/08/08 07:03:15;;;;;;;6.47;0.85;;;22.30;74.60;;;;;;4946427;29;20054;-76
2021/08/08 07:05:41;;;;;;;5.38;1.20;;;22.70;73.00;;;;;;4969745;28;20047;-76
2021/08/08 07:08:09;;;;;;;3.05;0.80;;;23.00;72.60;;;;;;4962893;28;20030;-76
2021/08/08 07:10:36;;;;;;;3.60;0.93;;;23.50;70.90;;;;;;4977669;28;20046;-76
2021/08/08 07:13:02;;;;;;;3.15;0.85;;;23.90;68.80;;;;;;4967156;28;20038;-76
2021/08/08 07:15:29;;;;;;;2.10;0.80;;;22.30;72.70;;;;;;4970911;28;20039;-77
2021/08/08 07:17:55;;;;;;;2.78;1.33;;;22.50;72.30;;;;;;4957485;28;20036;-76
2021/08/08 07:20:22;;;;;;;4.18;1.08;;;22.60;71.80;;;;;;4953293;28;20473;-76
2021/08/08 07:22:48;;;;;;;4.95;1.20;;;22.50;72.10;;;;;;4953651;28;20035;-76
2021/08/08 07:25:15;;;;;;;3.50;0.90;;;22.70;71.00;;;;;;4958713;28;20047;-77
2021/08/08 07:27:41;;;;;;;4.10;1.23;;;22.80;70.40;;;;;;4972219;28;20465;-75
2021/08/08 07:30:08;;;;;;;3.78;1.25;;;22.60;70.20;;;;;;4971582;28;20042;-76
2021/08/08 07:32:36;;;;;;;2.88;1.08;;;22.10;73.40;;;;;;4971797;28;20039;-76
2021/08/08 07:35:03;;;;;;;3.45;0.90;;;23.00;70.30;;;;;;4971117;28;20038;-76
2021/08/08 07:37:30;;;;;;;3.60;1.13;;;23.40;69.30;;;;;;4972337;28;20390;-77
2021/08/08 07:39:56;;;;;;;3.50;1.02;;;23.80;68.40;;;;;;4972679;28;20427;-79
2021/08/08 07:42:22;;;;;;;3.95;1.17;;;24.30;65.30;;;;;;4973939;28;20047;-77
2021/08/08 07:44:48;;;;;;;3.00;0.70;;;24.40;67.30;;;;;;4983796;28;20460;-78
2021/08/08 07:47:16;;;;;;;3.17;1.10;;;25.20;64.30;;;;;;4965164;28;20058;-76
2021/08/08 07:49:44;;;;;;;4.47;0.85;;;25.00;64.70;;;;;;4971109;28;20034;-78
2021/08/08 07:52:10;;;;;;;4.30;1.25;;;24.40;64.30;;;;;;4982499;28;20045;-75
2021/08/08 07:54:37;;;;;;;4.65;0.90;;;24.30;66.50;;;;;;4979398;28;20050;-76
2021/08/08 07:57:03;;;;;;;4.05;1.10;;;24.70;64.90;;;;;;4979014;28;20027;-76
2021/08/08 07:59:30;;;;;;;4.57;1.05;;;25.40;63.10;;;;;;4972074;28;20342;-76
2021/08/08 08:01:57;;;;;;;3.58;1.10;;;25.10;62.50;;;;;;4979864;28;20054;-74
2021/08/08 08:04:25;;;;;;;4.15;1.00;;;24.30;62.70;;;;;;4971298;28;20031;-75
2021/08/08 08:06:51;;;;;;;4.35;1.27;;;23.10;64.70;;;;;;4971883;28;20050;-75
2021/08/08 08:09:18;;;;;;;4.03;1.08;;;22.90;64.60;;;;;;4971148;28;20042;-74
2021/08/08 08:11:44;;;;;;;4.18;1.05;;;22.70;66.30;;;;;;4968583;28;20361;-74
2021/08/08 08:14:10;;;;;;;3.25;1.35;;;22.70;67.00;;;;;;4968864;28;20039;-72
2021/08/08 08:16:37;;;;;;;5.93;1.38;;;22.10;67.80;;;;;;4967941;28;20049;-73
2021/08/08 08:19:03;;;;;;;2.40;1.02;;;21.70;69.60;;;;;;4973834;28;20043;-73
2021/08/08 08:21:30;;;;;;;5.82;1.42;;;22.30;67.80;;;;;;4970926;28;20050;-74
2021/08/08 08:23:56;;;;;;;5.38;1.17;;;22.60;66.60;;;;;;4971319;28;20472;-72
2021/08/08 08:26:22;;;;;;;2.97;1.17;;;21.80;67.80;;;;;;4972270;28;20038;-73
2021/08/08 08:28:49;;;;;;;4.82;1.42;;;21.10;67.10;;;;;;4990236;28;20043;-73
2021/08/08 08:31:16;;;;;;;5.03;1.27;;;21.10;68.00;;;;;;4974293;28;20050;-73
2021/08/08 08:33:42;;;;;;;4.78;1.10;;;21.90;67.40;;;;;;4990034;28;20050;-73
2021/08/08 08:36:09;;;;;;;4.25;1.08;;;22.50;66.00;;;;;;4975214;28;20050;-73
2021/08/08 08:38:36;;;;;;;5.00;1.13;;;21.80;67.10;;;;;;4974539;28;20384;-74
2021/08/08 08:41:04;;;;;;;2.70;1.20;;;21.30;68.20;;;;;;4974904;28;20051;-75
2021/08/08 08:43:31;;;;;;;3.78;1.02;;;21.00;69.20;;;;;;4989606;28;20039;-75
2021/08/08 08:46:01;;;;;;;5.47;1.83;;;20.70;69.90;;;;;;4971672;28;20046;-76
2021/08/08 08:48:32;;;;;;;3.65;1.17;;;20.50;70.50;;;;;;4971713;28;20392;-74
2021/08/08 08:51:00;;;;;;;4.90;1.20;;;20.70;70.40;;;;;;4962822;28;20033;-75
2021/08/08 08:53:29;;;;;;;3.15;1.00;;;20.20;70.10;;;;;;4972672;28;20043;-75
2021/08/08 08:55:59;;;;;;;5.18;1.30;;;20.20;71.00;;;;;;4973979;28;20049;-74
2021/08/08 08:58:25;;;;;;;5.68;1.35;;;20.90;69.90;;;;;;4968475;28;20035;-75
2021/08/08 09:00:52;;;;;;;3.50;1.10;;;20.90;69.60;;;;;;4959625;28;20460;-75
2021/08/08 09:03:18;;;;;;;4.97;1.30;;;20.90;70.00;;;;;;4973977;28;20528;-78
2021/08/08 09:05:47;;;;;;;4.22;1.20;;;21.10;68.90;;;;;;4973857;28;20038;-73
2021/08/08 09:08:14;;;;;;;4.45;1.20;;;21.50;68.10;;;;;;4970975;28;20462;-76
2021/08/08 09:10:40;;;;;;;3.30;1.00;;;21.70;66.10;;;;;;4970859;28;20042;-77
2021/08/08 09:13:07;;;;;;;4.15;2.03;;;21.60;66.30;;;;;;4989432;28;20038;-75
2021/08/08 09:15:42;;;;;;;3.60;1.38;;;21.30;65.90;;;;;;4973411;28;20049;-75
2021/08/08 09:18:21;;;;;;;6.60;1.20;;;21.20;65.50;;;;;;4973653;28;20034;-74
2021/08/08 09:21:09;;;;;;;6.20;1.02;;;21.30;65.40;;;;;;4971135;28;20035;-74
2021/08/08 09:23:36;;;;;;;3.80;1.30;;;21.80;63.30;;;;;;4955249;28;20457;-74
2021/08/08 09:26:04;;;;;;;4.90;1.10;;;21.30;61.40;;;;;;4955231;28;20039;-73
2021/08/08 09:28:34;;;;;;;3.75;1.33;;;21.00;61.60;;;;;;4954689;28;20038;-74
2021/08/08 09:31:01;;;;;;;5.07;1.45;;;21.00;63.20;;;;;;4955729;28;20042;-75
2021/08/08 09:33:40;;;;;;;4.28;1.25;;;21.10;62.30;;;;;;4973934;28;20213;-74
2021/08/08 09:36:06;;;;;;;3.83;1.13;;;21.10;61.60;;;;;;4960984;28;20034;-75
2021/08/08 09:38:46;;;;;;;5.15;1.05;;;21.20;60.90;;;;;;4972856;28;20035;-74
2021/08/08 09:41:23;;;;;;;3.97;1.52;;;21.00;61.50;;;;;;4974159;28;20357;-75
2021/08/08 09:43:49;;;;;;;4.15;1.33;;;21.00;62.40;;;;;;4967948;28;20028;-75
2021/08/08 09:46:19;;;;;;;5.78;1.08;;;21.30;62.30;;;;;;4956182;28;20027;-74
2021/08/08 09:48:45;;;;;;;3.63;0.97;;;21.60;63.10;;;;;;4974876;28;20049;-75
2021/08/08 09:51:11;;;;;;;3.65;1.17;;;21.90;62.50;;;;;;4972738;28;20597;-76
2021/08/08 09:53:37;;;;;;;6.07;1.33;;;21.60;62.30;;;;;;4976461;28;20499;-74
2021/08/08 09:56:04;;;;;;;3.90;1.20;;;21.50;62.10;;;;;;4976098;28;20035;-74
2021/08/08 09:58:38;;;;;;;5.18;1.38;;;22.00;61.60;;;;;;4973380;28;20031;-73
2021/08/08 10:01:05;;;;;;;2.58;1.00;;;22.50;59.00;;;;;;4989025;28;20053;-74
2021/08/08 10:03:31;;;;;;;4.43;1.20;;;22.10;59.30;;;;;;4972191;28;20035;-74
2021/08/08 10:05:58;;;;;;;3.67;1.30;;;22.10;60.40;;;;;;4973617;28;20472;-75
2021/08/08 10:08:25;;;;;;;4.75;1.73;;;22.80;60.10;;;;;;4959143;28;20341;-76
2021/08/08 10:10:53;;;;;;;3.33;1.40;;;23.20;57.70;;;;;;4965797;28;20027;-75
2021/08/08 10:13:31;;;;;;;7.43;1.88;;;22.90;58.40;;;;;;4973454;28;20480;-74
2021/08/08 10:15:59;;;;;;;3.83;1.38;;;22.30;58.70;;;;;;4972617;28;20041;-73
2021/08/08 10:18:54;;;;;;;5.63;1.40;;;21.90;59.30;;;;;;4973895;28;20027;-74
2021/08/08 10:21:20;;;;;;;4.30;1.23;;;22.00;59.70;;;;;;4976128;28;20027;-75
2021/08/08 10:23:48;;;;;;;5.82;1.45;;;22.20;59.30;;;;;;4974530;28;20039;-76
2021/08/08 10:26:15;;;;;;;4.97;0.90;;;22.10;58.00;;;;;;4964572;28;20054;-74
2021/08/08 10:28:42;;;;;;;4.40;1.45;;;22.20;57.40;;;;;;4967869;28;20037;-75
2021/08/08 10:31:09;;;;;;;3.75;1.00;;;22.00;58.10;;;;;;4982270;28;20027;-76
2021/08/08 10:33:47;;;;;;;3.85;1.00;;;22.20;57.30;;;;;;4970643;28;20023;-75
2021/08/08 10:36:21;;;;;;;3.03;1.00;;;22.40;57.00;;;;;;4964148;28;20046;-73
2021/08/08 10:38:49;;;;;;;5.82;1.02;;;22.70;57.60;;;;;;4956794;28;20107;-75
2021/08/08 10:41:15;;;;;;;2.90;1.35;;;22.70;57.30;;;;;;4962519;28;20039;-74
2021/08/08 10:43:45;;;;;;;4.05;1.00;;;22.80;56.40;;;;;;4974479;28;20026;-76
2021/08/08 10:46:13;;;;;;;3.38;1.35;;;22.80;56.60;;;;;;4972142;28;20042;-75
2021/08/08 10:48:42;;;;;;;4.07;1.60;;;22.80;57.50;;;;;;4973319;28;20031;-74
2021/08/08 10:51:38;;;;;;;4.95;1.63;;;23.00;56.80;;;;;;4972965;28;20038;-74
2021/08/08 10:54:07;;;;;;;4.18;1.02;;;22.80;57.70;;;;;;4967608;28;20039;-74
2021/08/08 10:56:47;;;;;;;4.10;1.23;;;22.60;57.10;;;;;;4972730;28;20050;-74
2021/08/08 10:59:15;;;;;;;4.90;1.17;;;22.40;57.90;;;;;;4972533;28;20050;-74
2021/08/08 11:01:42;;;;;;;5.47;1.52;;;22.20;57.80;;;;;;4973917;28;20046;-75
2021/08/08 11:04:09;;;;;;;4.28;1.60;;;22.20;57.60;;;;;;4973802;28;20410;-76
2021/08/08 11:06:36;;;;;;;3.55;1.15;;;22.20;58.30;;;;;;4972623;28;20038;-76
2021/08/08 11:09:04;;;;;;;4.00;1.08;;;22.10;59.10;;;;;;4973796;28;20061;-74
2021/08/08 11:11:33;;;;;;;3.05;1.00;;;21.90;58.80;;;;;;4973425;28;20023;-75
2021/08/08 11:14:09;;;;;;;3.75;1.58;;;22.30;57.50;;;;;;4974410;28;20027;-74
2021/08/08 11:16:36;;;;;;;5.75;1.25;;;22.60;56.90;;;;;;4971819;28;20026;-74
2021/08/08 11:19:03;;;;;;;1.70;0.70;;;22.60;56.70;;;;;;4955360;28;20036;-75
2021/08/08 11:21:29;;;;;;;5.03;1.30;;;22.90;57.70;;;;;;4962711;28;20487;-74
2021/08/08 11:23:56;;;;;;;4.88;1.20;;;22.20;57.40;;;;;;4955693;28;20042;-73
2021/08/08 11:26:23;;;;;;;4.43;1.45;;;22.20;59.00;;;;;;4958825;28;20043;-73
2021/08/08 11:29:00;;;;;;;4.03;1.52;;;22.10;59.40;;;;;;4970239;28;20022;-74
2021/08/08 11:31:32;;;;;;;4.68;1.30;;;22.50;58.60;;;;;;4959423;28;20066;-74
2021/08/08 11:34:01;;;;;;;6.40;2.60;;;22.50;57.90;;;;;;4971861;28;20035;-74
2021/08/08 11:36:34;;;;;;;3.78;1.30;;;22.50;57.40;;;;;;4971401;28;20030;-75
2021/08/08 11:39:04;;;;;;;4.35;1.00;;;22.30;57.90;;;;;;4972002;28;20043;-75
2021/08/08 11:41:30;;;;;;;3.05;1.17;;;22.10;58.80;;;;;;4971179;28;20051;-76
2021/08/08 11:44:05;;;;;;;5.22;1.85;;;22.10;58.20;;;;;;4974230;28;20136;-74
2021/08/08 11:46:32;;;;;;;6.00;2.40;;;22.10;58.80;;;;;;4956402;28;20043;-74
2021/08/08 11:48:58;;;;;;;4.30;1.25;;;22.30;59.20;;;;;;4977047;28;20038;-75
2021/08/08 11:51:24;;;;;;;5.50;1.38;;;22.20;58.90;;;;;;4954315;28;20034;-75
2021/08/08 11:53:55;;;;;;;7.95;1.08;;;22.30;57.90;;;;;;4960227;28;20039;-75
2021/08/08 11:56:28;;;;;;;5.90;1.50;;;22.60;57.40;;;;;;4972136;28;20030;-75
2021/08/08 11:58:57;;;;;;;4.18;1.13;;;22.50;57.30;;;;;;4969842;28;20043;-75
2021/08/08 12:01:24;;;;;;;4.25;1.35;;;22.50;58.30;;;;;;4977510;28;20039;-75
2021/08/08 12:03:51;;;;;;;3.20;1.00;;;22.60;57.90;;;;;;4980438;28;20042;-73
2021/08/08 12:06:22;;;;;;;3.33;1.13;;;22.60;58.90;;;;;;4977793;28;20037;-75
2021/08/08 12:08:53;;;;;;;3.55;1.30;;;22.70;58.40;;;;;;4976608;28;20022;-75
2021/08/08 12:11:22;;;;;;;3.13;0.80;;;23.00;57.90;;;;;;4966831;28;20034;-75
2021/08/08 12:14:06;;;;;;;4.93;1.60;;;23.00;57.30;;;;;;4975718;28;20345;-74
2021/08/08 12:16:34;;;;;;;4.80;1.13;;;22.70;58.20;;;;;;4974007;28;20863;-75
2021/08/08 12:19:02;;;;;;;3.60;1.30;;;22.70;58.80;;;;;;4975932;28;20476;-73
2021/08/08 12:21:34;;;;;;;4.68;1.52;;;22.90;58.60;;;;;;4975189;28;20035;-75
2021/08/08 12:24:11;;;;;;;3.75;1.23;;;22.90;58.10;;;;;;4963762;28;20457;-74
2021/08/08 12:26:41;;;;;;;4.03;1.25;;;22.70;58.40;;;;;;4968600;28;20047;-74
2021/08/08 12:29:08;;;;;;;6.15;1.35;;;22.60;58.50;;;;;;4975953;28;20027;-75
2021/08/08 12:31:41;;;;;;;5.15;1.40;;;22.50;58.50;;;;;;4974829;28;20031;-75
2021/08/08 12:34:09;;;;;;;5.20;1.92;;;22.50;59.30;;;;;;4962441;28;20027;-75
2021/08/08 12:36:41;;;;;;;5.45;1.58;;;22.70;58.70;;;;;;4969204;28;20047;-74
2021/08/08 12:39:08;;;;;;;3.95;1.38;;;22.70;57.30;;;;;;4975891;28;20112;-73
2021/08/08 12:41:40;;;;;;;7.15;1.70;;;22.70;58.10;;;;;;4975194;28;20471;-74
2021/08/08 12:44:07;;;;;;;3.90;1.65;;;22.60;58.90;;;;;;4973732;28;20034;-74
2021/08/08 12:46:39;;;;;;;8.13;2.63;;;22.40;58.30;;;;;;4974850;28;20587;-74
2021/08/08 12:49:10;;;;;;;3.97;1.38;;;22.40;58.50;;;;;;4974911;28;20031;-73
2021/08/08 12:51:41;;;;;;;5.40;1.48;;;22.80;57.40;;;;;;4974545;28;20031;-75
2021/08/08 12:54:08;;;;;;;5.22;1.50;;;23.00;58.20;;;;;;4974999;28;20030;-75